createdAt,value
2023-03-15T00:02:10.123Z,1.70
2023-03-15T00:04:37.123Z,2.47
2023-03-15T00:07:03.511Z,2.03
2023-03-15T00:09:29.873Z,1.60
2023-03-15T00:11:56.264Z,1.80
2023-03-15T00:14:22.589Z,1.87
2023-03-15T00:16:48.974Z,1.73
2023-03-15T00:19:15.280Z,1.63
2023-03-15T00:21:43.330Z,1.33
2023-03-15T00:24:12.475Z,1.80
2023-03-15T00:26:39.038Z,1.57
2023-03-15T00:29:05.829Z,1.37
2023-03-15T00:31:32.232Z,1.50
2023-03-15T00:33:58.540Z,1.60
2023-03-15T00:36:25.365Z,1.60
2023-03-15T00:38:53.379Z,2.03
2023-03-15T00:41:20.391Z,1.40
2023-03-15T00:43:47.181Z,1.87
2023-03-15T00:46:14.110Z,2.00
2023-03-15T00:48:40.576Z,2.13
2023-03-15T00:51:08.536Z,2.97
2023-03-15T00:53:35.699Z,1.47
2023-03-15T00:56:06.660Z,2.10
2023-03-15T00:58:32.986Z,1.40
2023-03-15T01:00:59.652Z,2.50
2023-03-15T01:03:26.058Z,1.70
2023-03-15T01:05:52.771Z,1.67
2023-03-15T01:08:19.096Z,1.67
2023-03-15T01:10:45.399Z,1.80
2023-03-15T01:13:11.715Z,1.60
2023-03-15T01:15:38.083Z,1.80
2023-03-15T01:18:04.413Z,1.63
2023-03-15T01:20:30.712Z,1.67
2023-03-15T01:22:57.019Z,2.00
2023-03-15T01:25:23.346Z,2.00
2023-03-15T01:27:49.731Z,2.10
2023-03-15T01:30:16.225Z,1.60
2023-03-15T01:32:42.680Z,2.00
2023-03-15T01:35:09.197Z,1.60
2023-03-15T01:37:35.524Z,2.70
2023-03-15T01:40:01.940Z,2.47
2023-03-15T01:42:28.279Z,1.57
2023-03-15T01:45:00.072Z,2.37
2023-03-15T01:47:27.323Z,1.83
2023-03-15T01:50:09.288Z,1.87
2023-03-15T01:52:36.993Z,1.93
2023-03-15T01:55:06.291Z,1.70
2023-03-15T01:57:38.329Z,2.27
2023-03-15T02:00:11.041Z,1.80
2023-03-15T02:02:40.072Z,1.70
2023-03-15T02:05:10.012Z,1.90
2023-03-15T02:07:37.001Z,1.87
2023-03-15T02:10:08.832Z,1.87
2023-03-15T02:12:36.433Z,1.90
2023-03-15T02:15:04.449Z,1.60
2023-03-15T02:17:36.845Z,1.80
2023-03-15T02:20:12.342Z,2.13
2023-03-15T02:22:38.737Z,2.10
2023-03-15T02:25:09.536Z,1.87
2023-03-15T02:27:36.789Z,2.17
2023-03-15T02:30:03.996Z,2.47
2023-03-15T02:32:31.040Z,2.10
2023-03-15T02:34:57.604Z,1.93
2023-03-15T02:37:24.176Z,1.90
2023-03-15T02:39:50.488Z,2.73
2023-03-15T02:42:17.609Z,2.00
2023-03-15T02:44:44.882Z,1.50
2023-03-15T02:47:13.930Z,1.70
2023-03-15T02:49:41.590Z,2.40
2023-03-15T02:52:08.351Z,2.47
2023-03-15T02:54:34.675Z,2.23
2023-03-15T02:57:04.456Z,2.13
2023-03-15T02:59:31.004Z,1.80
2023-03-15T03:01:57.317Z,1.97
2023-03-15T03:04:23.646Z,2.13
2023-03-15T03:06:50.078Z,2.70
2023-03-15T03:09:16.467Z,2.77
2023-03-15T03:11:42.968Z,2.23
2023-03-15T03:14:09.350Z,2.03
2023-03-15T03:16:35.711Z,2.17
2023-03-15T03:19:02.104Z,2.50
2023-03-15T03:21:28.500Z,1.83
2023-03-15T03:23:54.846Z,2.17
2023-03-15T03:26:21.266Z,2.10
2023-03-15T03:28:48.034Z,2.33
2023-03-15T03:31:18.598Z,2.40
2023-03-15T03:33:44.977Z,2.37
2023-03-15T03:36:13.135Z,1.87
2023-03-15T03:38:40.534Z,2.23
2023-03-15T03:41:07.229Z,2.07
2023-03-15T03:43:33.544Z,2.57
2023-03-15T03:45:59.905Z,1.87
2023-03-15T03:48:26.463Z,2.63
2023-03-15T03:50:52.833Z,2.57
2023-03-15T03:53:19.141Z,2.20
2023-03-15T03:55:46.474Z,1.90
2023-03-15T03:58:12.888Z,2.13
2023-03-15T04:00:39.260Z,2.80
2023-03-15T04:03:05.687Z,2.27
2023-03-15T04:05:32.086Z,3.23
2023-03-15T04:07:58.401Z,2.20
2023-03-15T04:10:26.815Z,2.77
2023-03-15T04:12:56.913Z,2.63
2023-03-15T04:15:23.971Z,2.17
2023-03-15T04:17:55.717Z,3.40
2023-03-15T04:20:22.919Z,2.40
2023-03-15T04:22:52.161Z,2.10
2023-03-15T04:25:19.075Z,1.60
2023-03-15T04:27:45.413Z,2.23
2023-03-15T04:30:12.278Z,1.90
2023-03-15T04:32:38.728Z,1.93
2023-03-15T04:35:05.487Z,2.57
2023-03-15T04:37:34.797Z,2.00
2023-03-15T04:40:01.226Z,2.33
2023-03-15T04:42:27.576Z,1.83
2023-03-15T04:44:53.926Z,2.13
2023-03-15T04:47:22.699Z,2.33
2023-03-15T04:49:49.147Z,2.00
2023-03-15T04:52:15.634Z,2.20
2023-03-15T04:54:41.952Z,2.40
2023-03-15T04:57:08.440Z,2.43
2023-03-15T04:59:34.832Z,2.57
2023-03-15T05:02:03.460Z,1.73
2023-03-15T05:04:30.241Z,2.70
2023-03-15T05:06:56.590Z,2.07
2023-03-15T05:09:22.982Z,2.03
2023-03-15T05:11:49.283Z,2.40
2023-03-15T05:14:15.584Z,1.83
2023-03-15T05:16:43.191Z,4.03
2023-03-15T05:19:09.613Z,3.33
2023-03-15T05:21:35.915Z,3.80
2023-03-15T05:24:02.305Z,4.00
2023-03-15T05:26:28.653Z,5.30
2023-03-15T05:28:55.189Z,3.47
2023-03-15T05:31:21.748Z,3.00
2023-03-15T05:33:48.109Z,3.53
2023-03-15T05:36:15.405Z,4.23
2023-03-15T05:38:44.009Z,4.80
2023-03-15T05:41:11.799Z,4.47
2023-03-15T05:43:38.232Z,5.80
2023-03-15T05:46:04.738Z,6.33
2023-03-15T05:48:32.443Z,5.40
2023-03-15T05:50:58.753Z,5.20
2023-03-15T05:53:25.057Z,5.63
2023-03-15T05:55:51.354Z,5.67
2023-03-15T05:58:17.649Z,4.37
2023-03-15T06:00:43.962Z,5.07
2023-03-15T06:03:10.433Z,5.73
2023-03-15T06:05:36.964Z,5.13
2023-03-15T06:08:03.324Z,5.10
2023-03-15T06:10:29.731Z,5.33
2023-03-15T06:12:56.117Z,4.83
2023-03-15T06:15:22.457Z,4.40
2023-03-15T06:17:48.898Z,5.13
2023-03-15T06:20:15.367Z,4.00
2023-03-15T06:22:41.870Z,6.67
2023-03-15T06:25:09.511Z,3.90
2023-03-15T06:27:36.198Z,5.87
2023-03-15T06:30:02.972Z,5.57
2023-03-15T06:32:29.527Z,4.93
2023-03-15T06:34:55.881Z,5.27
2023-03-15T06:37:34.241Z,4.90
2023-03-15T06:40:04.064Z,5.10
2023-03-15T06:42:30.547Z,4.43
2023-03-15T06:44:56.893Z,4.37
2023-03-15T06:47:23.249Z,3.43
2023-03-15T06:49:52.681Z,4.83
2023-03-15T06:52:19.221Z,5.90
2023-03-15T06:54:45.536Z,5.87
2023-03-15T06:57:11.968Z,4.50
2023-03-15T06:59:38.272Z,4.33
2023-03-15T07:02:04.599Z,5.70
2023-03-15T07:04:31.248Z,4.47
2023-03-15T07:06:57.672Z,6.23
2023-03-15T07:09:24.094Z,7.03
2023-03-15T07:11:50.631Z,7.67
2023-03-15T07:14:16.979Z,5.93
2023-03-15T07:16:43.336Z,5.03
2023-03-15T07:19:09.714Z,6.23
2023-03-15T07:21:36.097Z,6.63
2023-03-15T07:24:02.499Z,4.90
2023-03-15T07:26:28.928Z,4.87
2023-03-15T07:28:55.314Z,5.47
2023-03-15T07:31:22.266Z,5.27
2023-03-15T07:33:48.809Z,4.33
2023-03-15T07:36:15.153Z,4.30
2023-03-15T07:38:43.188Z,4.17
2023-03-15T07:41:09.873Z,4.10
2023-03-15T07:43:36.190Z,4.07
2023-03-15T07:46:02.655Z,3.87
2023-03-15T07:48:31.777Z,3.53
2023-03-15T07:50:58.168Z,3.83
2023-03-15T07:53:24.583Z,3.33
2023-03-15T07:55:50.901Z,3.37
2023-03-15T07:58:20.127Z,3.97
2023-03-15T08:00:46.990Z,3.90
2023-03-15T08:03:13.400Z,3.30
2023-03-15T08:05:40.156Z,4.37
2023-03-15T08:08:07.029Z,2.93
2023-03-15T08:10:33.393Z,3.20
2023-03-15T08:12:59.739Z,4.67
2023-03-15T08:15:26.102Z,2.93
2023-03-15T08:17:52.617Z,9.73
2023-03-15T08:20:19.068Z,10.03
2023-03-15T08:22:46.797Z,11.00
2023-03-15T08:25:13.958Z,16.63
2023-03-15T08:27:40.482Z,11.30
2023-03-15T08:30:07.211Z,23.40
2023-03-15T08:32:33.616Z,10.53
2023-03-15T08:35:00.169Z,9.77
2023-03-15T08:37:26.597Z,10.00
2023-03-15T08:40:00.835Z,9.70
2023-03-15T08:42:27.640Z,10.23
2023-03-15T08:44:54.034Z,7.40
2023-03-15T08:47:20.581Z,10.67
2023-03-15T08:49:46.980Z,7.17
2023-03-15T08:52:13.492Z,4.70
2023-03-15T08:54:40.499Z,5.10
2023-03-15T08:57:06.824Z,3.97
2023-03-15T08:59:33.160Z,4.33
2023-03-15T09:02:00.153Z,5.03
2023-03-15T09:04:26.692Z,3.33
2023-03-15T09:06:53.904Z,2.47
2023-03-15T09:09:20.214Z,2.67
2023-03-15T09:11:46.557Z,2.07
2023-03-15T09:14:12.881Z,3.10
2023-03-15T09:16:39.238Z,3.20
2023-03-15T09:19:05.625Z,3.05
2023-03-15T09:21:31.998Z,2.08
2023-03-15T09:23:58.378Z,2.22
2023-03-15T09:26:24.753Z,2.38
2023-03-15T09:28:51.087Z,2.20
2023-03-15T09:31:17.458Z,2.13
2023-03-15T09:33:46.624Z,2.45
2023-03-15T09:36:13.073Z,2.58
2023-03-15T09:38:39.581Z,2.08
2023-03-15T09:41:06.510Z,1.42
2023-03-15T09:43:35.554Z,1.90
2023-03-15T09:46:12.107Z,2.10
2023-03-15T09:48:44.700Z,1.85
2023-03-15T09:51:16.267Z,1.95
2023-03-15T09:53:42.583Z,2.30
2023-03-15T09:56:20.731Z,2.63
2023-03-15T09:58:47.435Z,1.95
2023-03-15T10:01:14.858Z,2.40
2023-03-15T10:03:41.264Z,1.95
2023-03-15T10:06:12.542Z,2.47
2023-03-15T10:08:38.893Z,1.70
2023-03-15T10:11:05.213Z,2.20
2023-03-15T10:13:54.805Z,2.10
2023-03-15T10:16:41.005Z,1.60
2023-03-15T10:19:07.345Z,1.75
2023-03-15T10:21:33.728Z,1.80
2023-03-15T10:24:01.786Z,2.35
2023-03-15T10:26:32.636Z,2.03
2023-03-15T10:29:00.033Z,1.95
2023-03-15T10:31:43.456Z,1.45
2023-03-15T10:34:14.208Z,1.83
2023-03-15T10:36:50.332Z,1.40
2023-03-15T10:39:16.817Z,1.70
2023-03-15T10:41:44.810Z,2.40
2023-03-15T10:44:13.359Z,1.30
2023-03-15T10:46:39.804Z,1.60
2023-03-15T10:49:14.683Z,1.55
2023-03-15T10:51:43.459Z,1.55
2023-03-15T10:54:12.573Z,1.60
2023-03-15T10:56:50.967Z,1.63
2023-03-15T10:59:22.155Z,1.55
2023-03-15T11:01:49.250Z,1.30
2023-03-15T11:04:17.555Z,1.42
2023-03-15T11:06:45.540Z,1.50
2023-03-15T11:09:16.682Z,1.42
2023-03-15T11:12:00.122Z,1.52
2023-03-15T11:14:46.718Z,1.55
2023-03-15T11:17:17.745Z,1.58
2023-03-15T11:19:48.902Z,1.52
2023-03-15T11:22:15.227Z,1.58
2023-03-15T11:24:41.606Z,2.17
2023-03-15T11:27:18.944Z,1.33
2023-03-15T11:29:50.060Z,1.63
2023-03-15T11:32:18.466Z,1.55
2023-03-15T11:34:44.764Z,1.63
2023-03-15T11:37:14.631Z,2.08
2023-03-15T11:39:45.254Z,1.63
2023-03-15T11:42:18.910Z,1.58
2023-03-15T11:44:46.502Z,1.70
2023-03-15T11:47:16.576Z,1.40
2023-03-15T11:49:49.140Z,1.88
2023-03-15T11:52:16.656Z,1.17
2023-03-15T11:54:43.956Z,1.75
2023-03-15T11:57:28.638Z,1.70
2023-03-15T12:00:15.487Z,2.23
2023-03-15T12:02:53.055Z,2.00
2023-03-15T12:05:38.011Z,2.40
2023-03-15T12:08:26.557Z,3.08
2023-03-15T12:10:53.515Z,1.70
2023-03-15T12:13:24.306Z,2.13
2023-03-15T12:15:51.234Z,2.13
2023-03-15T12:18:29.886Z,2.67
2023-03-15T12:21:09.788Z,1.42
2023-03-15T12:23:46.919Z,1.77
2023-03-15T12:26:24.646Z,2.42
2023-03-15T12:28:53.434Z,1.80
2023-03-15T12:31:20.171Z,2.15
2023-03-15T12:33:48.546Z,2.78
2023-03-15T12:36:35.137Z,1.83
2023-03-15T12:39:04.345Z,1.50
2023-03-15T12:41:41.387Z,1.58
2023-03-15T12:44:37.610Z,1.85
2023-03-15T12:47:08.425Z,2.60
2023-03-15T12:49:36.511Z,1.98
2023-03-15T12:52:13.627Z,2.30
2023-03-15T12:54:59.955Z,1.20
2023-03-15T12:57:31.001Z,1.70
2023-03-15T12:59:59.033Z,2.03
2023-03-15T13:02:43.285Z,1.63
2023-03-15T13:05:10.617Z,1.88
2023-03-15T13:07:54.027Z,2.20
2023-03-15T13:10:20.482Z,2.78
2023-03-15T13:13:08.198Z,1.60
2023-03-15T13:15:40.559Z,1.50
2023-03-15T13:18:17.991Z,1.45
2023-03-15T13:21:09.767Z,1.77
2023-03-15T13:23:37.164Z,1.98
2023-03-15T13:26:33.301Z,1.60
2023-03-15T13:31:29.325Z,1.90
2023-03-15T13:33:58.315Z,1.85
2023-03-15T13:36:45.962Z,2.45
2023-03-15T13:39:17.709Z,1.95
2023-03-15T13:41:44.009Z,2.05
2023-03-15T13:44:21.712Z,1.60
2023-03-15T13:46:49.307Z,1.80
2023-03-15T13:49:15.978Z,2.20
2023-03-15T13:51:43.172Z,1.55
2023-03-15T13:54:18.077Z,1.85
2023-03-15T13:56:49.891Z,1.58
2023-03-15T13:59:16.949Z,1.92
2023-03-15T14:01:43.482Z,1.40
2023-03-15T14:04:13.290Z,1.70
2023-03-15T14:06:39.827Z,1.20
2023-03-15T14:09:11.573Z,1.80
2023-03-15T14:11:40.544Z,1.85
2023-03-15T14:14:20.834Z,2.13
2023-03-15T14:17:03.581Z,1.73
2023-03-15T14:19:32.426Z,1.35
2023-03-15T14:22:00.206Z,1.77
2023-03-15T14:24:29.559Z,1.20
2023-03-15T14:27:00.475Z,1.88
2023-03-15T14:29:31.085Z,1.40
2023-03-15T14:32:05.393Z,1.70
2023-03-15T14:34:33.846Z,2.17
2023-03-15T14:37:04.286Z,2.00
2023-03-15T14:39:37.202Z,2.03
2023-03-15T14:42:03.693Z,2.10
2023-03-15T14:44:30.056Z,1.95
2023-03-15T14:46:56.408Z,1.60
2023-03-15T14:49:24.454Z,2.20
2023-03-15T14:51:55.758Z,1.80
2023-03-15T14:54:22.346Z,2.00
2023-03-15T14:56:48.687Z,2.03
2023-03-15T14:59:15.052Z,1.60
2023-03-15T15:01:46.970Z,2.17
2023-03-15T15:04:14.368Z,2.90
2023-03-15T15:06:52.599Z,1.73
2023-03-15T15:09:28.250Z,1.65
2023-03-15T15:11:54.744Z,2.30
2023-03-15T15:14:22.042Z,1.63
2023-03-15T15:16:48.906Z,1.80
2023-03-15T15:19:15.516Z,2.25
2023-03-15T15:21:42.903Z,2.28
2023-03-15T15:24:14.514Z,2.00
2023-03-15T15:26:40.930Z,1.77
2023-03-15T15:29:09.617Z,1.63
2023-03-15T15:31:36.060Z,2.20
2023-03-15T15:34:02.554Z,1.70
2023-03-15T15:36:32.532Z,1.70
2023-03-15T15:39:01.295Z,1.70
2023-03-15T15:41:28.357Z,1.63
2023-03-15T15:43:54.667Z,1.90
2023-03-15T15:46:21.122Z,2.13
2023-03-15T15:48:47.669Z,1.85
2023-03-15T15:51:17.075Z,2.40
2023-03-15T15:53:43.490Z,2.38
2023-03-15T15:56:12.566Z,2.38
2023-03-15T15:58:40.606Z,2.75
2023-03-15T16:01:06.960Z,2.67
2023-03-15T16:03:33.422Z,3.00
2023-03-15T16:05:59.768Z,2.58
2023-03-15T16:08:26.162Z,2.20
2023-03-15T16:10:52.546Z,2.35
2023-03-15T16:13:18.893Z,2.85
2023-03-15T16:15:45.355Z,2.50
2023-03-15T16:18:12.032Z,2.33
2023-03-15T16:20:39.448Z,2.42
2023-03-15T16:23:06.260Z,2.35
2023-03-15T16:25:34.983Z,2.17
2023-03-15T16:28:02.359Z,2.05
2023-03-15T16:30:30.499Z,2.10
2023-03-15T16:32:57.818Z,2.63
2023-03-15T16:35:26.827Z,1.70
2023-03-15T16:37:56.277Z,2.72
2023-03-15T16:40:26.545Z,1.92
2023-03-15T16:42:53.095Z,2.05
2023-03-15T16:45:19.880Z,2.38
2023-03-15T16:47:46.426Z,1.95
2023-03-15T16:50:12.744Z,2.15
2023-03-15T16:52:39.799Z,3.00
2023-03-15T16:55:06.351Z,2.40
2023-03-15T16:57:33.005Z,2.03
2023-03-15T16:59:59.325Z,2.58
2023-03-15T17:02:27.694Z,2.42
2023-03-15T17:04:54.437Z,2.75
2023-03-15T17:07:23.800Z,2.78
2023-03-15T17:09:50.544Z,2.47
2023-03-15T17:12:19.610Z,2.53
2023-03-15T17:14:46.062Z,2.38
2023-03-15T17:17:12.540Z,2.58
2023-03-15T17:19:38.890Z,2.70
2023-03-15T17:22:05.657Z,3.28
2023-03-15T17:24:32.657Z,2.63
2023-03-15T17:26:59.026Z,3.30
2023-03-15T17:29:25.503Z,2.90
2023-03-15T17:31:51.910Z,4.13
2023-03-15T17:34:19.204Z,2.92
2023-03-15T17:36:46.435Z,3.35
2023-03-15T17:39:15.073Z,4.30
2023-03-15T17:41:44.153Z,3.38
2023-03-15T17:44:10.808Z,3.50
2023-03-15T17:46:37.292Z,3.53
2023-03-15T17:49:04.176Z,2.55
2023-03-15T17:51:31.778Z,2.88
2023-03-15T17:53:59.543Z,3.42
2023-03-15T17:56:26.738Z,2.03
2023-03-15T17:58:53.211Z,2.17
2023-03-15T18:01:21.748Z,2.60
2023-03-15T18:03:49.148Z,2.00
2023-03-15T18:06:16.514Z,2.15
2023-03-15T18:08:43.590Z,2.60
2023-03-15T18:11:27.288Z,2.38
2023-03-15T18:13:54.037Z,3.08
2023-03-15T18:16:20.642Z,1.77
2023-03-15T18:18:47.009Z,1.80
2023-03-15T18:21:14.823Z,3.50
2023-03-15T18:23:41.506Z,3.63
2023-03-15T18:26:07.826Z,1.80
2023-03-15T18:28:34.160Z,2.13
2023-03-15T18:31:00.632Z,2.00
2023-03-15T18:33:26.979Z,2.40
2023-03-15T18:35:53.690Z,3.33
2023-03-15T18:38:20.091Z,2.90
2023-03-15T18:40:46.493Z,3.27
2023-03-15T18:43:15.918Z,2.73
2023-03-15T18:45:42.374Z,2.67
2023-03-15T18:48:08.828Z,3.43
2023-03-15T18:50:35.427Z,2.23
2023-03-15T18:53:01.812Z,2.90
2023-03-15T18:55:28.346Z,4.72
2023-03-15T18:57:55.043Z,3.70
2023-03-15T19:00:29.536Z,2.77
2023-03-15T19:02:56.976Z,2.80
2023-03-15T19:05:23.455Z,2.93
2023-03-15T19:07:50.362Z,2.97
2023-03-15T19:10:19.092Z,2.87
2023-03-15T19:12:45.657Z,2.90
2023-03-15T19:15:15.123Z,4.23
2023-03-15T19:17:42.270Z,3.60
2023-03-15T19:20:09.415Z,2.70
2023-03-15T19:22:35.714Z,3.50
2023-03-15T19:25:02.027Z,2.30
2023-03-15T19:27:28.547Z,2.70
2023-03-15T19:29:54.888Z,2.67
2023-03-15T19:32:21.627Z,2.70
2023-03-15T19:34:48.102Z,2.63
2023-03-15T19:37:14.426Z,2.33
2023-03-15T19:39:40.832Z,3.00
2023-03-15T19:42:08.132Z,3.17
2023-03-15T19:44:36.069Z,3.05
2023-03-15T19:47:02.835Z,3.35
2023-03-15T19:49:29.153Z,2.92
2023-03-15T19:51:55.519Z,3.17
2023-03-15T19:54:21.885Z,3.05
2023-03-15T19:56:48.877Z,2.97
2023-03-15T19:59:15.272Z,3.37
2023-03-15T20:01:41.948Z,3.10
2023-03-15T20:04:08.384Z,3.50
2023-03-15T20:06:34.714Z,2.90
2023-03-15T20:09:02.854Z,2.60
2023-03-15T20:11:30.126Z,2.43
2023-03-15T20:13:56.507Z,3.33
2023-03-15T20:16:22.977Z,2.00
2023-03-15T20:18:51.065Z,2.90
2023-03-15T20:21:17.890Z,2.40
2023-03-15T20:23:45.344Z,3.47
2023-03-15T20:26:13.016Z,2.23
2023-03-15T20:28:39.898Z,3.00
2023-03-15T20:31:10.310Z,2.63
2023-03-15T20:33:36.764Z,4.00
2023-03-15T20:36:03.433Z,2.90
2023-03-15T20:38:29.833Z,2.63
2023-03-15T20:40:56.633Z,2.87
2023-03-15T20:43:23.409Z,3.37
2023-03-15T20:45:53.913Z,3.10
2023-03-15T20:48:23.191Z,3.17
2023-03-15T20:50:49.526Z,3.37
2023-03-15T20:53:15.847Z,3.23
2023-03-15T20:55:42.175Z,3.43
2023-03-15T20:58:08.545Z,2.90
2023-03-15T21:00:35.977Z,3.00
2023-03-15T21:03:02.310Z,3.33
2023-03-15T21:05:31.127Z,4.30
2023-03-15T21:07:57.565Z,3.07
2023-03-15T21:10:24.252Z,2.53
2023-03-15T21:12:50.774Z,2.70
2023-03-15T21:15:20.419Z,3.97
2023-03-15T21:17:49.204Z,3.10
2023-03-15T21:20:15.884Z,3.10
2023-03-15T21:22:42.370Z,2.67
2023-03-15T21:25:08.933Z,2.70
2023-03-15T21:27:35.266Z,3.27
2023-03-15T21:30:01.651Z,3.20
2023-03-15T21:32:28.223Z,3.20
2023-03-15T21:34:54.544Z,3.73
2023-03-15T21:37:20.866Z,3.73
2023-03-15T21:39:47.197Z,3.63
2023-03-15T21:42:13.593Z,3.67
2023-03-15T21:44:40.346Z,3.17
2023-03-15T21:47:06.687Z,3.23
2023-03-15T21:49:33.139Z,3.60
2023-03-15T21:51:59.894Z,3.33
2023-03-15T21:54:26.193Z,3.50
2023-03-15T21:56:53.054Z,3.63
2023-03-15T21:59:19.706Z,4.40
2023-03-15T22:01:48.040Z,3.33
2023-03-15T22:04:14.359Z,3.60
2023-03-15T22:06:40.758Z,3.50
2023-03-15T22:09:07.065Z,3.33
2023-03-15T22:11:33.416Z,3.30
2023-03-15T22:13:59.741Z,3.23
2023-03-15T22:16:26.121Z,3.83
2023-03-15T22:18:52.449Z,5.10
2023-03-15T22:21:18.774Z,5.07
2023-03-15T22:23:45.427Z,2.90
2023-03-15T22:26:11.806Z,3.03
2023-03-15T22:28:38.194Z,2.77
2023-03-15T22:31:04.726Z,3.50
2023-03-15T22:33:31.817Z,3.20
2023-03-15T22:35:58.522Z,3.03
2023-03-15T22:38:25.556Z,3.60
2023-03-15T22:40:59.109Z,2.53
2023-03-15T22:43:25.439Z,4.37
2023-03-15T22:45:51.744Z,4.90
2023-03-15T22:48:18.066Z,3.10
2023-03-15T22:50:44.362Z,3.33
2023-03-15T22:53:10.664Z,3.40
2023-03-15T22:55:36.953Z,3.57
2023-03-15T22:58:03.264Z,3.17
2023-03-15T23:00:30.202Z,3.53
2023-03-15T23:02:56.536Z,3.00
2023-03-15T23:05:22.957Z,2.50
2023-03-15T23:07:49.331Z,2.80
2023-03-15T23:10:15.793Z,2.53
2023-03-15T23:12:42.387Z,3.17
2023-03-15T23:15:09.133Z,4.07
2023-03-15T23:17:35.450Z,3.03
2023-03-15T23:20:01.827Z,3.77
2023-03-15T23:22:29.112Z,5.87
2023-03-15T23:24:58.027Z,4.70
2023-03-15T23:27:25.917Z,2.57
2023-03-15T23:29:55.031Z,2.20
2023-03-15T23:32:22.261Z,2.70
2023-03-15T23:34:48.699Z,2.70
2023-03-15T23:37:15.263Z,2.80
2023-03-15T23:39:41.791Z,4.53
2023-03-15T23:42:08.231Z,2.87
2023-03-15T23:44:34.533Z,3.07
2023-03-15T23:47:02.949Z,2.77
2023-03-15T23:49:29.426Z,3.27
2023-03-15T23:51:55.779Z,3.93
2023-03-15T23:54:22.688Z,3.23
2023-03-15T23:56:49.021Z,2.53
2023-03-15T23:59:15.491Z,3.07
